createdAt,value
2022-08-19T00:12:46.994Z,53.42
2022-08-19T00:15:47.856Z,53.59
2022-08-19T00:19:22.510Z,53.73
2022-08-19T00:22:38.379Z,53.65
2022-08-19T00:31:48.617Z,53.76
2022-08-19T00:38:39.955Z,54.05
2022-08-19T00:44:51.980Z,54.20
2022-08-19T01:00:03.382Z,54.71
2022-08-19T01:06:29.009Z,54.77
2022-08-19T01:09:49.735Z,54.98
2022-08-19T01:13:25.378Z,55.01
2022-08-19T01:16:44.061Z,55.14
2022-08-19T01:23:17.990Z,55.21
2022-08-19T01:26:41.354Z,55.51
2022-08-19T01:30:15.600Z,55.54
2022-08-19T01:33:30.590Z,55.44
2022-08-19T01:36:46.549Z,55.71
2022-08-19T01:40:21.373Z,55.88
2022-08-19T01:47:21.691Z,55.94
2022-08-19T02:01:14.343Z,56.19
2022-08-19T02:04:31.531Z,56.46
2022-08-19T02:07:46.300Z,56.53
2022-08-19T02:11:02.370Z,56.62
2022-08-19T02:14:01.768Z,56.64
2022-08-19T02:17:26.863Z,56.79
2022-08-19T02:23:57.901Z,56.90
2022-08-19T02:33:31.241Z,57.29
2022-08-19T02:47:07.674Z,57.60
2022-08-19T02:53:53.154Z,57.79
2022-08-19T03:11:42.334Z,58.45
2022-08-19T03:15:09.166Z,58.47
2022-08-19T03:25:17.438Z,58.68
2022-08-19T03:31:52.482Z,58.88
2022-08-19T03:35:27.969Z,58.98
2022-08-19T03:38:24.523Z,58.84
2022-08-19T03:41:34.187Z,58.93
2022-08-19T03:44:54.092Z,59.06
2022-08-19T03:54:43.147Z,59.10
2022-08-19T03:57:59.257Z,59.30
2022-08-19T04:01:35.486Z,59.37
2022-08-19T04:04:51.388Z,59.48
2022-08-19T04:11:43.140Z,59.67
2022-08-19T04:15:00.214Z,59.54
2022-08-19T04:18:16.072Z,59.68
2022-08-19T04:21:41.941Z,59.72
2022-08-19T04:24:57.165Z,59.61
2022-08-19T04:27:56.941Z,59.71
2022-08-19T04:31:22.956Z,59.83
2022-08-19T04:35:02.372Z,59.72
2022-08-19T04:38:19.601Z,59.75
2022-08-19T04:41:36.591Z,59.80
2022-08-19T04:51:44.181Z,59.86
2022-08-19T04:58:07.375Z,59.66
2022-08-19T05:04:53.376Z,59.79
2022-08-19T05:07:54.026Z,59.76
2022-08-19T05:11:14.213Z,59.67
2022-08-19T05:18:13.527Z,59.70
2022-08-19T05:21:29.429Z,59.73
2022-08-19T05:25:09.382Z,59.76
2022-08-19T05:28:40.477Z,59.63
2022-08-19T05:34:55.515Z,59.75
2022-08-19T05:38:11.304Z,59.64
2022-08-19T06:00:33.870Z,59.17
2022-08-19T06:03:43.569Z,59.20
2022-08-19T06:06:56.528Z,59.02
2022-08-19T06:10:24.528Z,58.85
2022-08-19T06:13:33.371Z,59.00
2022-08-19T06:16:56.687Z,59.00
2022-08-19T06:23:07.519Z,58.64
2022-08-19T06:26:22.954Z,58.54
2022-08-19T06:29:29.999Z,58.45
2022-08-19T06:32:46.040Z,58.22
2022-08-19T06:48:49.988Z,57.43
2022-08-19T06:52:06.477Z,56.91
2022-08-19T06:58:44.173Z,55.76
2022-08-19T07:01:53.273Z,55.91
2022-08-19T07:11:55.699Z,55.49
2022-08-19T07:24:51.332Z,51.74
2022-08-19T07:27:25.521Z,50.82
2022-08-19T07:30:21.737Z,50.38
2022-08-19T07:32:57.938Z,48.53
2022-08-19T07:36:22.498Z,46.62
2022-08-19T07:39:20.692Z,47.06
2022-08-19T07:41:52.193Z,47.25
2022-08-19T07:44:24.401Z,46.56
2022-08-19T07:46:58.025Z,44.95
2022-08-19T07:49:36.323Z,45.05
2022-08-19T07:56:47.957Z,42.33
2022-08-19T08:15:25.134Z,37.15
2022-08-19T08:17:59.084Z,37.44
2022-08-19T08:20:33.442Z,35.91
2022-08-19T08:23:21.986Z,35.03
2022-08-19T08:26:33.870Z,35.06
2022-08-19T08:29:12.261Z,34.65
2022-08-19T08:31:44.509Z,34.22
2022-08-19T08:34:16.466Z,34.18
2022-08-19T08:36:49.132Z,32.21
2022-08-19T08:39:21.814Z,32.48
2022-08-19T08:42:11.792Z,32.10
2022-08-19T08:44:51.540Z,31.99
2022-08-19T08:47:25.936Z,32.09
2022-08-19T08:50:05.374Z,32.32
2022-08-19T08:52:45.987Z,31.51
2022-08-19T08:55:24.413Z,30.32
2022-08-19T08:58:10.485Z,30.58
2022-08-19T09:00:44.883Z,30.45
2022-08-19T09:03:23.195Z,28.28
2022-08-19T09:09:32.428Z,28.39
2022-08-19T09:12:48.230Z,27.82
2022-08-19T09:15:22.621Z,27.60
2022-08-19T09:18:07.403Z,27.21
2022-08-19T09:20:44.260Z,26.25
2022-08-19T09:23:18.541Z,26.01
2022-08-19T09:25:59.730Z,26.58
2022-08-19T09:28:30.564Z,26.68
2022-08-19T09:31:02.272Z,26.81
2022-08-19T09:33:32.546Z,26.74
2022-08-19T09:36:13.821Z,26.51
2022-08-19T09:38:51.128Z,25.45
2022-08-19T09:41:24.417Z,25.34
2022-08-19T09:43:59.196Z,25.40
2022-08-19T09:46:30.415Z,25.59
2022-08-19T09:49:06.748Z,25.41
2022-08-19T09:51:38.496Z,25.56
2022-08-19T09:54:11.485Z,25.37
2022-08-19T09:56:42.734Z,24.88
2022-08-19T09:59:13.922Z,24.78
2022-08-19T10:01:45.204Z,25.17
2022-08-19T10:04:20.484Z,25.64
2022-08-19T10:06:58.988Z,25.46
2022-08-19T10:09:35.169Z,25.33
2022-08-19T10:12:11.488Z,25.64
2022-08-19T10:14:40.874Z,25.70
2022-08-19T10:17:19.219Z,25.24
2022-08-19T10:19:55.074Z,25.43
2022-08-19T10:22:28.473Z,25.85
2022-08-19T10:25:33.663Z,26.04
2022-08-19T10:28:05.688Z,25.91
2022-08-19T10:30:44.863Z,26.05
2022-08-19T10:33:26.121Z,25.89
2022-08-19T10:36:12.785Z,26.35
2022-08-19T10:38:46.760Z,26.37
2022-08-19T10:41:27.292Z,26.59
2022-08-19T10:44:04.439Z,26.94
2022-08-19T10:46:48.291Z,27.01
2022-08-19T10:49:22.264Z,27.10
2022-08-19T10:52:13.191Z,27.05
2022-08-19T10:55:08.926Z,27.32
2022-08-19T10:58:01.270Z,27.24
2022-08-19T11:00:32.885Z,27.33
2022-08-19T11:03:02.198Z,27.70
2022-08-19T11:05:39.714Z,27.81
2022-08-19T11:08:23.465Z,28.12
2022-08-19T11:11:04.584Z,28.14
2022-08-19T11:13:42.627Z,28.25
2022-08-19T11:25:43.106Z,28.78
2022-08-19T11:28:19.247Z,28.77
2022-08-19T11:31:39.710Z,28.82
2022-08-19T11:34:15.086Z,28.90
2022-08-19T11:37:15.536Z,28.81
2022-08-19T11:39:53.632Z,28.93
2022-08-19T11:42:43.452Z,29.01
2022-08-19T11:45:13.969Z,29.09
2022-08-19T11:47:45.359Z,29.08
2022-08-19T11:50:18.117Z,29.51
2022-08-19T11:52:51.408Z,29.44
2022-08-19T11:55:22.037Z,29.60
2022-08-19T11:57:53.490Z,29.47
2022-08-19T12:00:24.360Z,29.62
2022-08-19T12:02:56.186Z,29.51
2022-08-19T12:05:26.015Z,29.45
2022-08-19T12:07:57.617Z,29.20
2022-08-19T12:10:27.076Z,29.17
2022-08-19T12:12:59.054Z,29.16
2022-08-19T12:15:37.052Z,29.34
2022-08-19T12:18:07.901Z,29.18
2022-08-19T12:20:39.738Z,29.48
2022-08-19T12:23:13.867Z,29.61
2022-08-19T12:25:51.429Z,29.51
2022-08-19T12:28:24.389Z,29.52
2022-08-19T12:30:54.261Z,29.36
2022-08-19T12:33:28.958Z,29.53
2022-08-19T12:36:08.779Z,29.69
2022-08-19T12:38:39.037Z,29.57
2022-08-19T12:41:17.005Z,29.49
2022-08-19T12:43:50.698Z,29.72
2022-08-19T12:46:26.146Z,29.81
2022-08-19T12:48:56.295Z,29.89
2022-08-19T12:51:28.549Z,30.17
2022-08-19T12:54:00.007Z,30.27
2022-08-19T12:56:32.507Z,30.19
2022-08-19T12:59:06.145Z,30.44
2022-08-19T13:01:37.241Z,30.37
2022-08-19T13:04:07.103Z,30.31
2022-08-19T13:06:41.309Z,30.50
2022-08-19T13:09:10.951Z,30.61
2022-08-19T13:11:40.834Z,30.48
2022-08-19T13:14:12.910Z,30.79
2022-08-19T13:16:44.180Z,30.80
2022-08-19T13:19:14.637Z,30.77
2022-08-19T13:21:44.286Z,30.67
2022-08-19T13:24:13.863Z,30.94
2022-08-19T13:26:43.953Z,30.91
2022-08-19T13:29:32.029Z,31.03
2022-08-19T13:32:21.741Z,31.17
2022-08-19T13:34:52.883Z,31.25
2022-08-19T13:37:44.277Z,31.33
2022-08-19T13:40:23.033Z,31.29
2022-08-19T13:42:56.040Z,31.51
2022-08-19T13:45:26.610Z,31.31
2022-08-19T13:48:00.124Z,31.17
2022-08-19T13:50:36.452Z,31.29
2022-08-19T13:53:08.306Z,31.44
2022-08-19T13:55:43.948Z,31.65
2022-08-19T13:58:14.748Z,31.46
2022-08-19T14:00:46.436Z,31.73
2022-08-19T14:03:18.201Z,31.61
2022-08-19T14:05:48.602Z,31.55
2022-08-19T14:08:21.657Z,31.73
2022-08-19T14:10:51.955Z,32.07
2022-08-19T14:13:24.746Z,31.99
2022-08-19T14:15:55.425Z,32.13
2022-08-19T14:18:30.931Z,32.01
2022-08-19T14:21:00.092Z,32.07
2022-08-19T14:23:32.089Z,32.39
2022-08-19T14:26:12.483Z,32.42
2022-08-19T14:28:43.745Z,32.36
2022-08-19T14:31:16.154Z,32.57
2022-08-19T14:33:52.877Z,32.60
2022-08-19T14:36:23.210Z,32.66
2022-08-19T14:38:52.686Z,32.62
2022-08-19T14:41:24.911Z,32.89
2022-08-19T14:43:55.324Z,32.79
2022-08-19T14:46:28.267Z,32.87
2022-08-19T14:49:00.490Z,32.82
2022-08-19T14:51:31.517Z,33.06
2022-08-19T14:54:00.869Z,32.76
2022-08-19T14:56:32.008Z,33.27
2022-08-19T14:59:02.374Z,33.14
2022-08-19T15:01:32.835Z,33.39
2022-08-19T15:04:05.291Z,33.16
2022-08-19T15:06:35.055Z,33.48
2022-08-19T15:09:07.373Z,33.76
2022-08-19T15:11:38.422Z,33.58
2022-08-19T15:14:11.793Z,33.67
2022-08-19T15:16:43.169Z,33.56
2022-08-19T15:19:13.180Z,33.50
2022-08-19T15:21:45.646Z,33.67
2022-08-19T15:24:15.073Z,33.43
2022-08-19T15:26:51.480Z,33.58
2022-08-19T15:29:21.841Z,33.63
2022-08-19T15:31:52.106Z,33.66
2022-08-19T15:34:28.898Z,33.75
2022-08-19T15:37:00.455Z,33.84
2022-08-19T15:39:32.729Z,33.76
2022-08-19T15:42:03.420Z,33.84
2022-08-19T15:44:33.391Z,34.12
2022-08-19T15:47:04.293Z,34.07
2022-08-19T15:49:34.307Z,34.12
2022-08-19T15:52:06.372Z,34.32
2022-08-19T15:54:35.881Z,34.42
2022-08-19T15:57:23.249Z,34.36
2022-08-19T16:00:12.590Z,34.39
2022-08-19T16:03:01.608Z,34.45
2022-08-19T16:05:49.821Z,34.57
2022-08-19T16:08:20.758Z,34.65
2022-08-19T16:10:51.915Z,34.72
2022-08-19T16:13:21.544Z,34.87
2022-08-19T16:15:57.627Z,34.99
2022-08-19T16:18:28.629Z,35.09
2022-08-19T16:20:57.860Z,35.03
2022-08-19T16:23:29.479Z,34.99
2022-08-19T16:26:02.438Z,35.04
2022-08-19T16:28:32.339Z,35.12
2022-08-19T16:31:01.302Z,35.22
2022-08-19T16:33:32.505Z,35.24
2022-08-19T16:36:08.765Z,35.18
2022-08-19T16:38:48.815Z,35.38
2022-08-19T16:41:19.047Z,35.67
2022-08-19T16:43:49.830Z,35.59
2022-08-19T16:46:20.991Z,35.60
2022-08-19T16:48:57.548Z,35.86
2022-08-19T16:51:27.483Z,35.90
2022-08-19T16:54:00.923Z,35.86
2022-08-19T16:56:33.098Z,36.23
2022-08-19T16:59:05.107Z,36.16
2022-08-19T17:01:35.143Z,36.37
2022-08-19T17:04:05.131Z,36.32
2022-08-19T17:06:38.452Z,36.38
2022-08-19T17:09:10.266Z,36.37
2022-08-19T17:11:41.743Z,36.55
2022-08-19T17:14:13.166Z,36.74
2022-08-19T17:16:42.181Z,36.77
2022-08-19T17:19:13.043Z,36.85
2022-08-19T17:21:44.841Z,36.95
2022-08-19T17:24:15.647Z,36.96
2022-08-19T17:26:46.948Z,37.06
2022-08-19T17:29:19.028Z,37.25
2022-08-19T17:31:48.638Z,37.44
2022-08-19T17:34:20.542Z,37.50
2022-08-19T17:36:49.767Z,37.71
2022-08-19T17:39:21.155Z,37.89
2022-08-19T17:41:51.814Z,37.99
2022-08-19T17:44:26.977Z,38.02
2022-08-19T17:46:59.047Z,37.98
2022-08-19T17:49:29.611Z,38.30
2022-08-19T17:52:08.244Z,38.45
2022-08-19T17:54:40.938Z,38.55
2022-08-19T17:57:11.765Z,38.48
2022-08-19T17:59:44.295Z,38.87
2022-08-19T18:02:16.483Z,38.64
2022-08-19T18:04:55.092Z,38.81
2022-08-19T18:07:26.056Z,39.02
2022-08-19T18:09:59.094Z,39.06
2022-08-19T18:12:35.430Z,39.38
2022-08-19T18:15:08.290Z,39.17
2022-08-19T18:17:38.461Z,39.51
2022-08-19T18:20:12.371Z,39.63
2022-08-19T18:22:45.883Z,39.65
2022-08-19T18:25:19.637Z,39.87
2022-08-19T18:27:58.579Z,39.62
2022-08-19T18:30:41.143Z,40.05
2022-08-19T18:33:18.755Z,40.25
2022-08-19T18:35:53.550Z,39.83
2022-08-19T18:38:41.143Z,39.83
2022-08-19T18:41:29.089Z,40.22
2022-08-19T18:44:21.379Z,40.06
2022-08-19T18:47:10.831Z,40.18
2022-08-19T18:49:40.891Z,40.17
2022-08-19T18:52:11.166Z,40.42
2022-08-19T18:54:51.213Z,40.39
2022-08-19T18:57:25.139Z,40.33
2022-08-19T18:59:59.958Z,40.57
2022-08-19T19:02:29.771Z,40.77
2022-08-19T19:05:02.783Z,40.38
2022-08-19T19:07:36.843Z,40.56
2022-08-19T19:10:08.026Z,40.99
2022-08-19T19:12:43.190Z,40.80
2022-08-19T19:15:13.578Z,40.86
2022-08-19T19:17:42.923Z,41.00
2022-08-19T19:20:13.344Z,41.33
2022-08-19T19:22:44.844Z,41.39
2022-08-19T19:25:15.348Z,41.29
2022-08-19T19:27:45.187Z,41.30
2022-08-19T19:30:16.356Z,41.64
2022-08-19T19:32:46.231Z,41.48
2022-08-19T19:35:17.841Z,41.69
2022-08-19T19:37:52.953Z,41.60
2022-08-19T19:40:25.208Z,41.51
2022-08-19T19:42:56.201Z,41.89
2022-08-19T19:45:26.946Z,42.00
2022-08-19T19:47:58.157Z,42.32
2022-08-19T19:50:30.595Z,42.30
2022-08-19T19:53:01.601Z,42.44
2022-08-19T19:55:32.771Z,42.07
2022-08-19T19:58:02.544Z,42.07
2022-08-19T20:00:35.336Z,42.62
2022-08-19T20:03:07.570Z,42.75
2022-08-19T20:05:39.834Z,42.99
2022-08-19T20:08:33.583Z,42.66
2022-08-19T20:11:05.320Z,42.87
2022-08-19T20:13:41.128Z,42.99
2022-08-19T20:16:11.462Z,43.16
2022-08-19T20:18:41.835Z,43.32
2022-08-19T20:21:12.277Z,43.53
2022-08-19T20:23:42.608Z,43.49
2022-08-19T20:26:34.070Z,43.56
2022-08-19T20:29:13.832Z,43.80
2022-08-19T20:31:58.035Z,44.04
2022-08-19T20:34:32.540Z,43.99
2022-08-19T20:37:04.465Z,44.06
2022-08-19T20:39:35.793Z,43.97
2022-08-19T20:42:06.089Z,44.21
2022-08-19T20:44:39.680Z,44.10
2022-08-19T20:47:13.700Z,44.29
2022-08-19T20:49:44.800Z,44.33
2022-08-19T20:52:15.380Z,44.29
2022-08-19T20:54:44.847Z,44.40
2022-08-19T20:57:14.265Z,44.44
2022-08-19T20:59:48.339Z,44.42
2022-08-19T21:02:20.005Z,44.56
2022-08-19T21:04:50.603Z,44.53
2022-08-19T21:07:19.718Z,44.51
2022-08-19T21:09:49.856Z,44.64
2022-08-19T21:12:20.787Z,44.80
2022-08-19T21:14:49.761Z,44.64
2022-08-19T21:17:19.842Z,44.75
2022-08-19T21:19:50.712Z,44.70
2022-08-19T21:22:20.493Z,44.74
2022-08-19T21:24:52.002Z,44.76
2022-08-19T21:27:22.229Z,44.74
2022-08-19T21:29:55.319Z,44.75
2022-08-19T21:32:24.920Z,44.77
2022-08-19T21:35:00.281Z,44.88
2022-08-19T21:37:34.076Z,44.99
2022-08-19T21:40:05.818Z,44.99
2022-08-19T21:42:37.048Z,45.01
2022-08-19T21:45:08.993Z,45.14
2022-08-19T21:47:39.429Z,45.09
2022-08-19T21:50:09.910Z,45.15
2022-08-19T21:52:40.317Z,45.33
2022-08-19T21:55:10.590Z,45.40
2022-08-19T21:57:41.564Z,45.51
2022-08-19T22:00:16.765Z,45.68
2022-08-19T22:02:46.476Z,45.82
2022-08-19T22:05:17.459Z,46.17
2022-08-19T22:07:47.884Z,46.40
2022-08-19T22:10:20.015Z,46.29
2022-08-19T22:12:51.807Z,46.67
2022-08-19T22:15:23.725Z,46.78
2022-08-19T22:17:53.760Z,47.09
2022-08-19T22:20:26.578Z,47.41
2022-08-19T22:23:00.113Z,47.66
2022-08-19T22:25:34.116Z,47.69
2022-08-19T22:28:06.489Z,48.62
2022-08-19T22:30:43.693Z,48.99
2022-08-19T22:33:17.249Z,49.10
2022-08-19T22:35:49.588Z,49.27
2022-08-19T22:38:20.496Z,49.40
2022-08-19T22:40:52.552Z,49.52
2022-08-19T22:43:25.963Z,49.48
2022-08-19T22:45:58.121Z,49.85
2022-08-19T22:48:31.959Z,49.97
2022-08-19T22:51:21.361Z,50.11
2022-08-19T22:53:51.068Z,50.36
2022-08-19T22:56:21.432Z,50.45
2022-08-19T22:58:51.712Z,50.64
2022-08-19T23:01:27.557Z,50.77
2022-08-19T23:04:04.149Z,50.90
2022-08-19T23:06:39.105Z,51.56
2022-08-19T23:09:16.960Z,52.02
2022-08-19T23:11:49.454Z,52.15
2022-08-19T23:14:18.891Z,52.67
2022-08-19T23:16:51.457Z,53.60
2022-08-19T23:19:23.038Z,53.88
2022-08-19T23:21:53.914Z,54.32
2022-08-19T23:24:24.760Z,55.01
2022-08-19T23:27:14.133Z,55.77
2022-08-19T23:30:03.155Z,57.73
2022-08-19T23:32:41.132Z,57.15
2022-08-19T23:35:16.476Z,57.80
2022-08-19T23:37:51.629Z,58.84
2022-08-19T23:40:25.451Z,59.85
2022-08-19T23:43:07.927Z,60.58
2022-08-19T23:45:50.908Z,59.78
2022-08-19T23:48:28.612Z,59.90
2022-08-19T23:51:02.049Z,59.79
2022-08-19T23:53:34.627Z,59.61
2022-08-19T23:56:07.706Z,60.03
2022-08-19T23:58:40.948Z,60.01
